WHTO2: S Canadian Riv, Whitefield, OK

Data processed at Tue May 21 2019 22:30


All information presented herein is the property of the government of the United States of America and may be revised or deleted at any time without prior notice.
Dissemination of this information without the expressed written consent of the Public Affairs Office, Tulsa District U.S. Army Corps of Engineers is strictly prohibited.
These data are gathered electronically and, as presented, have not undergone any form of quality control. These data are not guaranteed to be valid or correct.
Go to home page.
Go to station list.
Go to home page.

Upstream stations:

Downstream station:
Previous Day
Next Day
Current Day
    
SHEF ID:       WHTO2     Canadian River near Whitefield,
STATION TYPE:  
Regulating: Stage =    11.79, Flow =    37452

               PRECIP     STAGE  STAGE(2)  RIV-FLOW  BAT-LOAD
                   in        ft        ft       cfs      volt
              Ccp-Rev   Ccp-Rev   Ccp-Rev   Ccp-Rev   Ccp-Rev
(US/Central)
05/21 00:00      0.00      9.46      9.57     25186     12.50
05/21 01:00      0.00      9.48      9.57     25289     12.51
05/21 02:00      0.00      9.47      9.57     25238     12.50
05/21 03:00      0.00      9.50      9.57     25392     12.50
05/21 04:00      0.00      9.50      9.56     25392     12.49
05/21 05:00      0.00      9.48      9.57     25289     12.48
05/21 06:00      0.00      9.46      9.54     25186     12.47
05/21 07:00      0.00      9.40      9.41     24879     12.47
05/21 08:00      0.00      8.70      8.73     21283     12.55
05/21 09:00      0.00      7.89      7.90     17504     12.44
05/21 10:00      0.81      7.06      7.08     13990     12.49
05/21 11:00      0.01      6.24      6.25     10816     12.94
05/21 12:00      0.00      5.56      5.57      8546     13.62
05/21 13:00      0.00      4.96      4.95      6785     13.45
05/21 14:00      0.00      4.43      4.41      5355     13.55
05/21 15:00      0.00      3.99      3.97      4325     13.66
05/21 16:00      0.00      3.69      3.64      3699     13.63
05/21 17:00      0.00      3.45      3.41      3226     13.49
05/21 18:00      0.00      3.24      3.20      2843     13.39
05/21 19:00      0.00      3.04      3.02      2504     13.36
05/21 20:00      0.00      2.86      2.84      2214     13.47
05/21 21:00      0.00      2.71      2.69      1965     12.93
05/21 22:00      ----      ----      ----      ----      ----
05/21 23:00      ----      ----      ----      ----      ----